createdAt,value
2023-02-14T00:01:24.882Z,3.89
2023-02-14T00:03:53.550Z,3.86
2023-02-14T00:06:21.445Z,3.85
2023-02-14T00:08:48.854Z,3.89
2023-02-14T00:11:16.246Z,3.80
2023-02-14T00:14:03.917Z,3.75
2023-02-14T00:16:33.722Z,3.74
2023-02-14T00:19:03.698Z,3.73
2023-02-14T00:21:38.571Z,3.75
2023-02-14T00:24:19.767Z,3.79
2023-02-14T00:26:47.475Z,3.77
2023-02-14T00:29:21.075Z,3.79
2023-02-14T00:31:51.737Z,3.79
2023-02-14T00:34:21.194Z,3.85
2023-02-14T00:36:49.622Z,3.77
2023-02-14T00:39:18.200Z,3.74
2023-02-14T00:41:46.092Z,3.86
2023-02-14T00:44:14.082Z,3.87
2023-02-14T00:46:42.863Z,3.82
2023-02-14T00:49:10.553Z,3.86
2023-02-14T00:51:38.830Z,3.81
2023-02-14T00:54:06.499Z,3.76
2023-02-14T00:56:34.053Z,3.82
2023-02-14T00:59:02.010Z,3.81
2023-02-14T01:01:29.431Z,3.75
2023-02-14T01:03:56.920Z,3.83
2023-02-14T01:06:24.297Z,3.78
2023-02-14T01:08:51.632Z,3.78
2023-02-14T01:11:21.805Z,3.78
2023-02-14T01:13:50.340Z,3.76
2023-02-14T01:16:20.897Z,3.87
2023-02-14T01:18:50.513Z,3.81
2023-02-14T01:21:22.597Z,3.87
2023-02-14T01:23:53.424Z,3.79
2023-02-14T01:26:22.289Z,3.89
2023-02-14T01:28:50.194Z,3.86
2023-02-14T01:31:23.965Z,3.86
2023-02-14T01:33:54.128Z,3.83
2023-02-14T01:36:24.406Z,3.91
2023-02-14T01:38:53.848Z,3.89
2023-02-14T01:41:24.849Z,3.88
2023-02-14T01:43:59.828Z,3.89
2023-02-14T01:46:32.826Z,3.91
2023-02-14T01:49:09.748Z,3.85
2023-02-14T01:51:43.336Z,3.84
2023-02-14T01:54:11.959Z,3.91
2023-02-14T01:56:43.544Z,3.85
2023-02-14T01:59:17.921Z,3.82
2023-02-14T02:01:47.368Z,3.83
2023-02-14T02:04:25.208Z,3.75
2023-02-14T02:07:00.799Z,3.75
2023-02-14T02:09:43.912Z,3.80
2023-02-14T02:12:11.119Z,3.70
2023-02-14T02:14:38.521Z,3.67
2023-02-14T02:17:06.341Z,3.65
2023-02-14T02:19:58.148Z,3.68
2023-02-14T02:22:37.757Z,3.65
2023-02-14T02:25:37.354Z,3.64
2023-02-14T02:28:04.688Z,3.72
2023-02-14T02:30:44.354Z,3.63
2023-02-14T02:33:49.790Z,3.53
2023-02-14T02:36:34.324Z,3.60
2023-02-14T02:39:17.367Z,3.58
2023-02-14T02:41:49.503Z,3.56
2023-02-14T02:44:16.763Z,3.50
2023-02-14T02:47:12.252Z,3.51
2023-02-14T02:50:25.682Z,3.55
2023-02-14T02:53:07.338Z,3.54
2023-02-14T02:56:11.878Z,3.60
2023-02-14T02:58:55.004Z,3.59
2023-02-14T03:01:28.693Z,3.53
2023-02-14T03:04:19.140Z,3.63
2023-02-14T03:06:48.189Z,3.60
2023-02-14T03:09:24.539Z,3.61
2023-02-14T03:12:15.595Z,3.64
2023-02-14T03:14:56.099Z,3.72
2023-02-14T03:17:43.494Z,3.69
2023-02-14T03:20:21.086Z,3.69
2023-02-14T03:22:50.532Z,3.59
2023-02-14T03:25:32.034Z,3.67
2023-02-14T03:28:27.416Z,3.69
2023-02-14T03:31:12.980Z,3.67
2023-02-14T03:33:45.995Z,3.59
2023-02-14T03:36:20.128Z,3.43
2023-02-14T03:38:57.480Z,3.43
2023-02-14T03:41:29.888Z,3.42
2023-02-14T03:44:02.447Z,3.33
2023-02-14T03:46:42.941Z,3.34
2023-02-14T03:49:15.748Z,3.29
2023-02-14T03:51:45.313Z,3.23
2023-02-14T03:54:14.789Z,3.23
2023-02-14T03:56:46.226Z,3.14
2023-02-14T03:59:22.970Z,3.13
2023-02-14T04:02:04.477Z,3.15
2023-02-14T04:04:36.161Z,3.10
2023-02-14T04:07:20.822Z,3.10
2023-02-14T04:09:49.053Z,3.06
2023-02-14T04:12:19.830Z,3.02
2023-02-14T04:14:51.593Z,2.95
2023-02-14T04:17:57.504Z,3.01
2023-02-14T04:20:25.358Z,2.95
2023-02-14T04:22:54.448Z,2.95
2023-02-14T04:25:25.829Z,2.93
2023-02-14T04:27:53.138Z,2.92
2023-02-14T04:30:23.028Z,2.88
2023-02-14T04:32:51.015Z,2.88
2023-02-14T04:35:19.025Z,2.89
2023-02-14T04:37:46.337Z,2.96
2023-02-14T04:40:18.075Z,2.82
2023-02-14T04:42:46.864Z,2.83
2023-02-14T04:45:15.697Z,2.86
2023-02-14T04:47:43.148Z,2.97
2023-02-14T04:50:10.659Z,2.92
2023-02-14T04:52:46.123Z,2.92
2023-02-14T04:55:14.436Z,2.94
2023-02-14T04:57:42.772Z,2.98
2023-02-14T05:00:11.285Z,2.91
2023-02-14T05:02:39.060Z,2.95
2023-02-14T05:05:07.027Z,2.94
2023-02-14T05:07:34.793Z,2.89
2023-02-14T05:10:03.040Z,2.88
2023-02-14T05:12:30.786Z,2.86
2023-02-14T05:15:00.058Z,2.89
2023-02-14T05:17:27.726Z,2.86
2023-02-14T05:19:55.029Z,2.93
2023-02-14T05:22:22.738Z,2.90
2023-02-14T05:24:50.565Z,2.90
2023-02-14T05:27:18.873Z,2.83
2023-02-14T05:29:47.264Z,2.85
2023-02-14T05:32:15.428Z,2.85
2023-02-14T05:34:43.297Z,2.88
2023-02-14T05:37:10.775Z,2.85
2023-02-14T05:39:38.939Z,2.86
2023-02-14T05:44:34.764Z,2.97
2023-02-14T05:47:02.847Z,2.99
2023-02-14T05:49:30.858Z,2.98
2023-02-14T05:51:59.213Z,2.99
2023-02-14T05:54:26.846Z,3.04
2023-02-14T05:56:54.357Z,2.97
2023-02-14T05:59:22.197Z,3.12
2023-02-14T06:01:49.858Z,3.17
2023-02-14T06:04:18.025Z,3.20
2023-02-14T06:06:46.432Z,3.27
2023-02-14T06:09:14.591Z,3.39
2023-02-14T06:11:42.960Z,3.43
2023-02-14T06:14:11.054Z,3.50
2023-02-14T06:16:38.788Z,3.60
2023-02-14T06:19:07.144Z,3.79
2023-02-14T06:21:34.714Z,3.86
2023-02-14T06:24:06.745Z,3.85
2023-02-14T06:26:36.509Z,4.01
2023-02-14T06:29:04.940Z,4.01
2023-02-14T06:31:33.253Z,4.15
2023-02-14T06:34:01.142Z,4.16
2023-02-14T06:36:30.013Z,4.21
2023-02-14T06:38:57.483Z,4.31
2023-02-14T06:41:25.051Z,4.36
2023-02-14T06:43:53.118Z,4.42
2023-02-14T06:46:21.104Z,4.49
2023-02-14T06:48:48.889Z,4.48
2023-02-14T06:51:16.667Z,4.59
2023-02-14T06:53:44.862Z,4.55
2023-02-14T06:56:13.121Z,4.63
2023-02-14T06:58:41.354Z,4.67
2023-02-14T07:01:09.781Z,4.62
2023-02-14T07:03:37.978Z,4.67
2023-02-14T07:06:05.958Z,4.74
2023-02-14T07:08:34.106Z,4.74
2023-02-14T07:11:03.029Z,4.90
2023-02-14T07:13:30.844Z,4.90
2023-02-14T07:16:00.973Z,5.04
2023-02-14T07:18:31.501Z,5.13
2023-02-14T07:20:59.608Z,5.26
2023-02-14T07:23:28.164Z,5.39
2023-02-14T07:25:59.095Z,5.38
2023-02-14T07:28:26.715Z,5.46
2023-02-14T07:30:55.107Z,5.52
2023-02-14T07:33:23.312Z,5.62
2023-02-14T07:35:51.099Z,5.57
2023-02-14T07:38:19.177Z,5.51
2023-02-14T07:40:46.445Z,5.48
2023-02-14T07:43:14.278Z,5.44
2023-02-14T07:45:42.838Z,5.65
2023-02-14T07:48:10.715Z,5.99
2023-02-14T07:50:40.859Z,6.38
2023-02-14T07:53:10.557Z,6.61
2023-02-14T07:55:41.543Z,6.91
2023-02-14T07:58:09.907Z,6.99
2023-02-14T08:00:38.778Z,7.05
2023-02-14T08:03:06.691Z,6.96
2023-02-14T08:05:35.017Z,7.00
2023-02-14T08:08:03.063Z,6.94
2023-02-14T08:10:32.657Z,7.15
2023-02-14T08:13:00.656Z,7.23
2023-02-14T08:15:51.877Z,7.06
2023-02-14T08:18:27.779Z,7.18
2023-02-14T08:20:56.989Z,7.59
2023-02-14T08:23:24.962Z,7.60
2023-02-14T08:25:53.678Z,7.63
2023-02-14T08:28:25.075Z,7.77
2023-02-14T08:30:54.989Z,7.90
2023-02-14T08:33:24.019Z,8.10
2023-02-14T08:35:52.989Z,8.08
2023-02-14T08:38:21.703Z,7.97
2023-02-14T08:40:50.035Z,8.26
2023-02-14T08:43:18.980Z,8.39
2023-02-14T08:45:50.348Z,8.43
2023-02-14T08:48:19.053Z,8.69
2023-02-14T08:50:47.268Z,8.96
2023-02-14T08:53:15.260Z,9.00
2023-02-14T08:55:51.858Z,8.90
2023-02-14T08:58:23.928Z,8.55
2023-02-14T09:00:56.115Z,9.06
2023-02-14T09:03:23.554Z,9.88
2023-02-14T09:05:51.176Z,10.05
2023-02-14T09:08:19.200Z,10.27
2023-02-14T09:10:46.876Z,10.28
2023-02-14T09:13:15.682Z,10.41
2023-02-14T09:15:44.268Z,10.93
2023-02-14T09:18:11.972Z,11.16
2023-02-14T09:20:39.693Z,11.06
2023-02-14T09:23:07.624Z,11.18
2023-02-14T09:25:35.191Z,11.04
2023-02-14T09:28:02.768Z,11.14
2023-02-14T09:30:30.376Z,11.47
2023-02-14T09:32:58.285Z,11.23
2023-02-14T09:35:47.147Z,10.88
2023-02-14T09:38:14.782Z,10.76
2023-02-14T09:40:43.446Z,10.63
2023-02-14T09:43:37.385Z,10.44
2023-02-14T09:46:10.189Z,10.26
2023-02-14T09:48:44.655Z,10.66
2023-02-14T09:51:17.051Z,10.70
2023-02-14T09:53:50.362Z,10.51
2023-02-14T09:56:42.780Z,10.36
2023-02-14T09:59:47.374Z,9.88
2023-02-14T10:02:39.145Z,9.62
2023-02-14T10:05:15.887Z,9.50
2023-02-14T10:08:08.375Z,9.14
2023-02-14T10:10:44.100Z,9.16
2023-02-14T10:13:20.168Z,9.53
2023-02-14T10:15:57.044Z,9.47
2023-02-14T10:18:36.050Z,9.36
2023-02-14T10:21:05.151Z,9.36
2023-02-14T10:23:45.826Z,9.38
2023-02-14T10:26:33.807Z,9.42
2023-02-14T10:29:01.128Z,9.22
2023-02-14T10:31:44.850Z,8.95
2023-02-14T10:34:39.433Z,8.63
2023-02-14T10:37:28.706Z,8.70
2023-02-14T10:40:06.373Z,9.09
2023-02-14T10:42:54.309Z,9.43
2023-02-14T10:45:54.943Z,9.33
2023-02-14T10:48:44.070Z,9.63
2023-02-14T10:51:47.420Z,9.74
2023-02-14T10:54:21.497Z,9.97
2023-02-14T11:04:36.796Z,11.70
2023-02-14T11:07:05.258Z,11.75
2023-02-14T11:09:33.132Z,11.82
2023-02-14T11:12:01.785Z,12.06
2023-02-14T11:14:33.243Z,11.78
2023-02-14T11:17:20.751Z,11.76
2023-02-14T11:20:06.803Z,11.21
2023-02-14T11:22:36.796Z,10.70
2023-02-14T11:25:07.850Z,10.57
2023-02-14T11:27:38.954Z,10.51
2023-02-14T11:30:20.172Z,10.67
2023-02-14T11:32:58.657Z,10.93
2023-02-14T11:35:38.785Z,11.48
2023-02-14T11:38:35.898Z,12.06
2023-02-14T23:54:44.689Z,1.61
2023-02-14T23:57:12.161Z,1.66
2023-02-14T23:59:42.146Z,1.72
